PWSweather.com
Personal Weather Stations
Station Observations
MADWEATHER
MadeiraPT

MadeiraPT

Lat: 32.735, Lon: -17.194

Elevation: 1063

Station Type: Davis VantagePro2

www.mad-weather.com

High Low Average
Temperature 73.8°F23.2°F 62.2°F16.8°F 67.7°F19.8°F
Dew Point 64.0°F17.8°F 55.8°F13.2°F 60.5°F15.8°F
Winds 7.3 mph -11.7 mph - Calm Calm 3.2 mph 5.1 mph
Wind Gusts 12.0 mph19.3 mph -- 4.5 mph7.2 mph
Humidity 87% 67% 78%
Pressure 30.16 in1021.30 in 30.09 in1019.00 in -
Precipitation 0.00 in0.00 in - -
Hour Temp Dew Point Humidity Winds Wind Gusts Pressure Precip Precip Rate Daily Precip Total
12:00 AM 63.5°F17.5°C 57.6°F14.2°C 81% 1.5 mph SSE2.4 kmh SSE 3.0 mph4.8 kmh 30.13 in1020.3 mb - 0.00 in0.0 mm 0.00 in0.0 mm
12:10 AM 63.4°F17.4°C 57.5°F14.2°C 81% 2.0 mph SSE3.2 kmh SSE 3.0 mph4.8 kmh 30.13 in1020.3 mb - 0.00 in0.0 mm 0.00 in0.0 mm
12:20 AM 63.1°F17.3°C 57.2°F14.0°C 81% 2.2 mph SSE3.5 kmh SSE 3.0 mph4.8 kmh 30.12 in1020.0 mb - 0.00 in0.0 mm 0.00 in0.0 mm
12:30 AM 63.1°F17.3°C 57.1°F13.9°C 81% 1.6 mph SSE2.6 kmh SSE 3.0 mph4.8 kmh 30.12 in1020.0 mb - 0.00 in0.0 mm 0.00 in0.0 mm
12:40 AM 62.9°F17.2°C 57.0°F13.9°C 81% 2.4 mph SSE3.9 kmh SSE 3.0 mph4.8 kmh 30.12 in1020.0 mb - 0.00 in0.0 mm 0.00 in0.0 mm
12:50 AM 62.8°F17.1°C 57.2°F14.0°C 82% 3.1 mph SSE5.0 kmh SSE 4.0 mph6.4 kmh 30.11 in1019.6 mb - 0.00 in0.0 mm 0.00 in0.0 mm
01:00 AM 62.9°F17.2°C 56.6°F13.7°C 80% 2.8 mph SSE4.5 kmh SSE 3.0 mph4.8 kmh 30.11 in1019.6 mb - 0.00 in0.0 mm 0.00 in0.0 mm
01:10 AM 62.9°F17.2°C 57.4°F14.1°C 82% 2.8 mph SSE4.5 kmh SSE 4.0 mph6.4 kmh 30.11 in1019.6 mb - 0.00 in0.0 mm 0.00 in0.0 mm
01:20 AM 63.1°F17.3°C 57.1°F13.9°C 81% 3.7 mph SSE6.0 kmh SSE 4.0 mph6.4 kmh 30.11 in1019.6 mb - 0.00 in0.0 mm 0.00 in0.0 mm
01:30 AM 63.0°F17.2°C 57.1°F13.9°C 81% 3.1 mph SSE5.0 kmh SSE 4.0 mph6.4 kmh 30.11 in1019.6 mb - 0.00 in0.0 mm 0.00 in0.0 mm
01:40 AM 62.8°F17.1°C 56.5°F13.6°C 80% 2.1 mph SSE3.4 kmh SSE 3.0 mph4.8 kmh 30.10 in1019.3 mb - 0.00 in0.0 mm 0.00 in0.0 mm
01:50 AM 62.4°F16.9°C 55.8°F13.2°C 79% 2.8 mph SSE4.5 kmh SSE 3.0 mph4.8 kmh 30.10 in1019.3 mb - 0.00 in0.0 mm 0.00 in0.0 mm
02:00 AM 62.5°F16.9°C 56.9°F13.8°C 82% Calm Calm -- 30.10 in1019.3 mb - 0.00 in0.0 mm 0.00 in0.0 mm
02:10 AM 62.6°F17.0°C 57.0°F13.9°C 82% 2.6 mph SSE4.2 kmh SSE 3.0 mph4.8 kmh 30.09 in1019.0 mb - 0.00 in0.0 mm 0.00 in0.0 mm
02:20 AM 62.7°F17.1°C 57.1°F13.9°C 82% 3.2 mph SSE5.1 kmh SSE 4.0 mph6.4 kmh 30.09 in1019.0 mb - 0.00 in0.0 mm 0.00 in0.0 mm
02:30 AM 62.6°F17.0°C 57.4°F14.1°C 83% 2.4 mph SSE3.9 kmh SSE 3.0 mph4.8 kmh 30.09 in1019.0 mb - 0.00 in0.0 mm 0.00 in0.0 mm
02:40 AM 62.5°F16.9°C 56.9°F13.8°C 82% 2.7 mph SSE4.3 kmh SSE 4.0 mph6.4 kmh 30.09 in1019.0 mb - 0.00 in0.0 mm 0.00 in0.0 mm
02:50 AM 62.4°F16.9°C 57.2°F14.0°C 83% 3.8 mph SSE6.1 kmh SSE 4.0 mph6.4 kmh 30.09 in1019.0 mb - 0.00 in0.0 mm 0.00 in0.0 mm
03:00 AM 62.3°F16.8°C 57.1°F13.9°C 83% 4.2 mph SSE6.8 kmh SSE 5.0 mph8.0 kmh 30.09 in1019.0 mb - 0.00 in0.0 mm 0.00 in0.0 mm
03:10 AM 62.3°F16.8°C 57.4°F14.1°C 84% 3.9 mph SSE6.3 kmh SSE 4.0 mph6.4 kmh 30.09 in1019.0 mb - 0.00 in0.0 mm 0.00 in0.0 mm
03:20 AM 62.3°F16.8°C 57.4°F14.1°C 84% 4.1 mph SSE6.6 kmh SSE 5.0 mph8.0 kmh 30.09 in1019.0 mb - 0.00 in0.0 mm 0.00 in0.0 mm
03:30 AM 62.3°F16.8°C 57.4°F14.1°C 84% 3.7 mph SSE6.0 kmh SSE 5.0 mph8.0 kmh 30.09 in1019.0 mb - 0.00 in0.0 mm 0.00 in0.0 mm
03:40 AM 62.2°F16.8°C 57.3°F14.1°C 84% 4.1 mph SSE6.6 kmh SSE 5.0 mph8.0 kmh 30.09 in1019.0 mb - 0.00 in0.0 mm 0.00 in0.0 mm
03:50 AM 62.2°F16.8°C 57.3°F14.1°C 84% 2.2 mph SSE3.5 kmh SSE 3.0 mph4.8 kmh 30.09 in1019.0 mb - 0.00 in0.0 mm 0.00 in0.0 mm
04:00 AM 62.4°F16.9°C 57.9°F14.4°C 85% 2.4 mph SSE3.9 kmh SSE 4.0 mph6.4 kmh 30.10 in1019.3 mb - 0.00 in0.0 mm 0.00 in0.0 mm
04:10 AM 62.8°F17.1°C 58.2°F14.6°C 85% 2.1 mph SSE3.4 kmh SSE 3.0 mph4.8 kmh 30.09 in1019.0 mb - 0.00 in0.0 mm 0.00 in0.0 mm
04:20 AM 63.2°F17.3°C 58.3°F14.6°C 84% 2.6 mph SSE4.2 kmh SSE 3.0 mph4.8 kmh 30.10 in1019.3 mb - 0.00 in0.0 mm 0.00 in0.0 mm
04:30 AM 63.5°F17.5°C 58.2°F14.6°C 83% 2.6 mph SSE4.2 kmh SSE 3.0 mph4.8 kmh 30.11 in1019.6 mb - 0.00 in0.0 mm 0.00 in0.0 mm
04:40 AM 63.6°F17.6°C 58.3°F14.6°C 83% 2.4 mph SSE3.9 kmh SSE 3.0 mph4.8 kmh 30.10 in1019.3 mb - 0.00 in0.0 mm 0.00 in0.0 mm
04:50 AM 63.4°F17.4°C 57.8°F14.3°C 82% 3.3 mph SSE5.3 kmh SSE 4.0 mph6.4 kmh 30.10 in1019.3 mb - 0.00 in0.0 mm 0.00 in0.0 mm
05:00 AM 62.8°F17.1°C 57.2°F14.0°C 82% 3.2 mph SSE5.1 kmh SSE 4.0 mph6.4 kmh 30.10 in1019.3 mb - 0.00 in0.0 mm 0.00 in0.0 mm
05:10 AM 62.6°F17.0°C 57.4°F14.1°C 83% 4.1 mph SSE6.6 kmh SSE 5.0 mph8.0 kmh 30.10 in1019.3 mb - 0.00 in0.0 mm 0.00 in0.0 mm
05:20 AM 62.4°F16.9°C 56.8°F13.8°C 82% 4.7 mph SSE7.6 kmh SSE 5.0 mph8.0 kmh 30.10 in1019.3 mb - 0.00 in0.0 mm 0.00 in0.0 mm
05:30 AM 62.3°F16.8°C 56.7°F13.7°C 82% 4.6 mph SSE7.4 kmh SSE 5.0 mph8.0 kmh 30.10 in1019.3 mb - 0.00 in0.0 mm 0.00 in0.0 mm
05:40 AM 62.3°F16.8°C 56.7°F13.7°C 82% 4.5 mph SSE7.2 kmh SSE 5.0 mph8.0 kmh 30.10 in1019.3 mb - 0.00 in0.0 mm 0.00 in0.0 mm
05:50 AM 62.3°F16.8°C 56.7°F13.7°C 82% 4.1 mph SSE6.6 kmh SSE 5.0 mph8.0 kmh 30.10 in1019.3 mb - 0.00 in0.0 mm 0.00 in0.0 mm
06:00 AM 62.3°F16.8°C 56.8°F13.8°C 82% 3.8 mph SSE6.1 kmh SSE 4.0 mph6.4 kmh 30.10 in1019.3 mb - 0.00 in0.0 mm 0.00 in0.0 mm
06:10 AM 62.5°F16.9°C 56.9°F13.8°C 82% 3.3 mph SSE5.3 kmh SSE 4.0 mph6.4 kmh 30.10 in1019.3 mb - 0.00 in0.0 mm 0.00 in0.0 mm
06:20 AM 62.6°F17.0°C 57.1°F13.9°C 82% 3.1 mph SSE5.0 kmh SSE 4.0 mph6.4 kmh 30.11 in1019.6 mb - 0.00 in0.0 mm 0.00 in0.0 mm
06:30 AM 62.7°F17.1°C 57.5°F14.2°C 83% 1.5 mph SSE2.4 kmh SSE 3.0 mph4.8 kmh 30.11 in1019.6 mb - 0.00 in0.0 mm 0.00 in0.0 mm
06:40 AM 62.9°F17.2°C 57.7°F14.3°C 83% 3.8 mph SSE6.1 kmh SSE 4.0 mph6.4 kmh 30.11 in1019.6 mb - 0.00 in0.0 mm 0.00 in0.0 mm
06:50 AM 63.1°F17.3°C 57.9°F14.4°C 83% 2.8 mph SSE4.5 kmh SSE 4.0 mph6.4 kmh 30.11 in1019.6 mb - 0.00 in0.0 mm 0.00 in0.0 mm
07:00 AM 63.2°F17.3°C 57.9°F14.4°C 83% 2.8 mph SSE4.5 kmh SSE 3.0 mph4.8 kmh 30.12 in1020.0 mb - 0.00 in0.0 mm 0.00 in0.0 mm
07:10 AM 63.4°F17.4°C 58.5°F14.7°C 84% Calm Calm -- 30.12 in1020.0 mb - 0.00 in0.0 mm 0.00 in0.0 mm
07:20 AM 63.8°F17.7°C 58.5°F14.7°C 83% Calm Calm -- 30.12 in1020.0 mb - 0.00 in0.0 mm 0.00 in0.0 mm
07:30 AM 64.1°F17.8°C 58.8°F14.9°C 83% Calm Calm -- 30.12 in1020.0 mb - 0.00 in0.0 mm 0.00 in0.0 mm
07:40 AM 65.0°F18.3°C 59.4°F15.2°C 82% Calm Calm -- 30.13 in1020.3 mb - 0.00 in0.0 mm 0.00 in0.0 mm
07:50 AM 65.6°F18.7°C 59.6°F15.3°C 81% Calm Calm -- 30.13 in1020.3 mb - 0.00 in0.0 mm 0.00 in0.0 mm
08:00 AM 66.3°F19.1°C 59.9°F15.5°C 80% Calm Calm -- 30.13 in1020.3 mb - 0.00 in0.0 mm 0.00 in0.0 mm
08:10 AM 66.5°F19.2°C 60.2°F15.7°C 80% Calm Calm -- 30.13 in1020.3 mb - 0.00 in0.0 mm 0.00 in0.0 mm
08:20 AM 66.8°F19.3°C 60.1°F15.6°C 79% 2.3 mph SSE3.7 kmh SSE 4.0 mph6.4 kmh 30.14 in1020.7 mb - 0.00 in0.0 mm 0.00 in0.0 mm
08:30 AM 66.9°F19.4°C 59.8°F15.4°C 78% 3.2 mph SSE5.1 kmh SSE 6.0 mph9.7 kmh 30.14 in1020.7 mb - 0.00 in0.0 mm 0.00 in0.0 mm
08:40 AM 66.8°F19.3°C 60.1°F15.6°C 79% 2.2 mph SSE3.5 kmh SSE 4.0 mph6.4 kmh 30.14 in1020.7 mb - 0.00 in0.0 mm 0.00 in0.0 mm
08:50 AM 67.3°F19.6°C 60.6°F15.9°C 79% 3.5 mph SSE5.6 kmh SSE 5.0 mph8.0 kmh 30.14 in1020.7 mb - 0.00 in0.0 mm 0.00 in0.0 mm
09:00 AM 67.3°F19.6°C 59.9°F15.5°C 77% 3.2 mph SSE5.1 kmh SSE 5.0 mph8.0 kmh 30.14 in1020.7 mb - 0.00 in0.0 mm 0.00 in0.0 mm
09:10 AM 67.5°F19.7°C 60.0°F15.6°C 77% 4.0 mph SSE6.4 kmh SSE 5.0 mph8.0 kmh 30.14 in1020.7 mb - 0.00 in0.0 mm 0.00 in0.0 mm
09:20 AM 68.2°F20.1°C 60.7°F15.9°C 77% 3.2 mph SSE5.1 kmh SSE 4.0 mph6.4 kmh 30.14 in1020.7 mb - 0.00 in0.0 mm 0.00 in0.0 mm
09:30 AM 68.2°F20.1°C 60.7°F15.9°C 77% 4.1 mph SSE6.6 kmh SSE 4.0 mph6.4 kmh 30.14 in1020.7 mb - 0.00 in0.0 mm 0.00 in0.0 mm
09:40 AM 68.1°F20.1°C 60.7°F15.9°C 77% 4.1 mph SSE6.6 kmh SSE 5.0 mph8.0 kmh 30.14 in1020.7 mb - 0.00 in0.0 mm 0.00 in0.0 mm
09:50 AM 68.0°F20.0°C 60.2°F15.7°C 76% 4.1 mph SSE6.6 kmh SSE 5.0 mph8.0 kmh 30.14 in1020.7 mb - 0.00 in0.0 mm 0.00 in0.0 mm
10:00 AM 68.4°F20.2°C 60.9°F16.1°C 77% 4.1 mph SSE6.6 kmh SSE 7.0 mph11.3 kmh 30.14 in1020.7 mb - 0.00 in0.0 mm 0.00 in0.0 mm
10:10 AM 68.4°F20.2°C 60.9°F16.1°C 77% 4.1 mph SSE6.6 kmh SSE 6.0 mph9.7 kmh 30.15 in1021.0 mb - 0.00 in0.0 mm 0.00 in0.0 mm
10:20 AM 68.8°F20.4°C 60.9°F16.1°C 76% 3.0 mph SSE4.8 kmh SSE 6.0 mph9.7 kmh 30.15 in1021.0 mb - 0.00 in0.0 mm 0.00 in0.0 mm
10:30 AM 68.7°F20.4°C 61.2°F16.2°C 77% 3.9 mph SSE6.3 kmh SSE 6.0 mph9.7 kmh 30.15 in1021.0 mb - 0.00 in0.0 mm 0.00 in0.0 mm
10:40 AM 69.2°F20.7°C 61.7°F16.5°C 77% 4.2 mph SSE6.8 kmh SSE 7.0 mph11.3 kmh 30.15 in1021.0 mb - 0.00 in0.0 mm 0.00 in0.0 mm
10:50 AM 68.8°F20.4°C 61.3°F16.3°C 77% 5.2 mph SSE8.4 kmh SSE 6.0 mph9.7 kmh 30.15 in1021.0 mb - 0.00 in0.0 mm 0.00 in0.0 mm
11:00 AM 69.0°F20.6°C 61.1°F16.2°C 76% 3.5 mph SSE5.6 kmh SSE 4.0 mph6.4 kmh 30.15 in1021.0 mb - 0.00 in0.0 mm 0.00 in0.0 mm
11:10 AM 69.2°F20.7°C 61.7°F16.5°C 77% 4.1 mph SSE6.6 kmh SSE 7.0 mph11.3 kmh 30.15 in1021.0 mb - 0.00 in0.0 mm 0.00 in0.0 mm
11:20 AM 69.3°F20.7°C 61.0°F16.1°C 75% 3.9 mph SSE6.3 kmh SSE 7.0 mph11.3 kmh 30.15 in1021.0 mb - 0.00 in0.0 mm 0.00 in0.0 mm
11:30 AM 69.4°F20.8°C 61.6°F16.4°C 76% 4.6 mph SSE7.4 kmh SSE 6.0 mph9.7 kmh 30.16 in1021.3 mb - 0.00 in0.0 mm 0.00 in0.0 mm
11:40 AM 70.1°F21.2°C 61.4°F16.3°C 74% 3.7 mph SSE6.0 kmh SSE 6.0 mph9.7 kmh 30.15 in1021.0 mb - 0.00 in0.0 mm 0.00 in0.0 mm
11:50 AM 70.0°F21.1°C 61.7°F16.5°C 75% 5.0 mph SSE8.0 kmh SSE 6.0 mph9.7 kmh 30.16 in1021.3 mb - 0.00 in0.0 mm 0.00 in0.0 mm
12:00 PM 70.6°F21.4°C 61.6°F16.4°C 73% 2.8 mph SSE4.5 kmh SSE 6.0 mph9.7 kmh 30.15 in1021.0 mb - 0.00 in0.0 mm 0.00 in0.0 mm
12:10 PM 69.9°F21.1°C 60.8°F16.0°C 73% 3.4 mph SSE5.5 kmh SSE 6.0 mph9.7 kmh 30.16 in1021.3 mb - 0.00 in0.0 mm 0.00 in0.0 mm
12:20 PM 70.6°F21.4°C 61.2°F16.2°C 72% 4.9 mph SSE7.9 kmh SSE 6.0 mph9.7 kmh 30.15 in1021.0 mb - 0.00 in0.0 mm 0.00 in0.0 mm
12:30 PM 71.0°F21.7°C 59.9°F15.5°C 68% 4.9 mph SSE7.9 kmh SSE 7.0 mph11.3 kmh 30.16 in1021.3 mb - 0.00 in0.0 mm 0.00 in0.0 mm
12:40 PM 71.2°F21.8°C 60.1°F15.6°C 68% 4.1 mph SSE6.6 kmh SSE 7.0 mph11.3 kmh 30.16 in1021.3 mb - 0.00 in0.0 mm 0.00 in0.0 mm
12:50 PM 71.6°F22.0°C 60.5°F15.8°C 68% 5.3 mph SSE8.5 kmh SSE 6.0 mph9.7 kmh 30.15 in1021.0 mb - 0.00 in0.0 mm 0.00 in0.0 mm
01:00 PM 72.1°F22.3°C 61.4°F16.3°C 69% 5.1 mph SSE8.2 kmh SSE 7.0 mph11.3 kmh 30.15 in1021.0 mb - 0.00 in0.0 mm 0.00 in0.0 mm
01:10 PM 72.4°F22.4°C 61.7°F16.5°C 69% 5.4 mph SSE8.7 kmh SSE 8.0 mph12.9 kmh 30.15 in1021.0 mb - 0.00 in0.0 mm 0.00 in0.0 mm
01:20 PM 72.8°F22.7°C 61.2°F16.2°C 67% 4.7 mph SSE7.6 kmh SSE 7.0 mph11.3 kmh 30.15 in1021.0 mb - 0.00 in0.0 mm 0.00 in0.0 mm
01:30 PM 72.3°F22.4°C 61.6°F16.4°C 69% 3.6 mph SSE5.8 kmh SSE 7.0 mph11.3 kmh 30.15 in1021.0 mb - 0.00 in0.0 mm 0.00 in0.0 mm
01:40 PM 72.5°F22.5°C 61.4°F16.3°C 68% 4.8 mph SSE7.7 kmh SSE 9.0 mph14.5 kmh 30.15 in1021.0 mb - 0.00 in0.0 mm 0.00 in0.0 mm
01:50 PM 72.1°F22.3°C 61.8°F16.6°C 70% 4.4 mph SSE7.1 kmh SSE 8.0 mph12.9 kmh 30.15 in1021.0 mb - 0.00 in0.0 mm 0.00 in0.0 mm
02:00 PM 71.2°F21.8°C 61.3°F16.3°C 71% 5.5 mph SSE8.9 kmh SSE 6.0 mph9.7 kmh 30.15 in1021.0 mb - 0.00 in0.0 mm 0.00 in0.0 mm
02:10 PM 73.0°F22.8°C 62.2°F16.8°C 69% 4.9 mph SSE7.9 kmh SSE 6.0 mph9.7 kmh 30.14 in1020.7 mb - 0.00 in0.0 mm 0.00 in0.0 mm
02:20 PM 72.5°F22.5°C 62.1°F16.7°C 70% 5.4 mph S8.7 kmh S 6.0 mph9.7 kmh 30.14 in1020.7 mb - 0.00 in0.0 mm 0.00 in0.0 mm
02:30 PM 73.2°F22.9°C 62.0°F16.7°C 68% 6.3 mph S10.1 kmh S 9.0 mph14.5 kmh 30.14 in1020.7 mb - 0.00 in0.0 mm 0.00 in0.0 mm
02:40 PM 73.8°F23.2°C 62.6°F17.0°C 68% 5.7 mph S9.2 kmh S 10.0 mph16.1 kmh 30.14 in1020.7 mb - 0.00 in0.0 mm 0.00 in0.0 mm
02:50 PM 73.3°F22.9°C 61.7°F16.5°C 67% 5.1 mph S8.2 kmh S 8.0 mph12.9 kmh 30.14 in1020.7 mb - 0.00 in0.0 mm 0.00 in0.0 mm
03:00 PM 73.4°F23.0°C 62.6°F17.0°C 69% 4.6 mph S7.4 kmh S 7.0 mph11.3 kmh 30.14 in1020.7 mb - 0.00 in0.0 mm 0.00 in0.0 mm
03:10 PM 73.3°F22.9°C 62.1°F16.7°C 68% 4.9 mph S7.9 kmh S 7.0 mph11.3 kmh 30.13 in1020.3 mb - 0.00 in0.0 mm 0.00 in0.0 mm
03:20 PM 73.5°F23.1°C 62.3°F16.8°C 68% 6.2 mph S10.0 kmh S 9.0 mph14.5 kmh 30.14 in1020.7 mb - 0.00 in0.0 mm 0.00 in0.0 mm
03:30 PM 73.5°F23.1°C 62.7°F17.1°C 69% 6.9 mph S11.1 kmh S 10.0 mph16.1 kmh 30.14 in1020.7 mb - 0.00 in0.0 mm 0.00 in0.0 mm
03:40 PM 73.3°F22.9°C 62.5°F16.9°C 69% 7.3 mph S11.7 kmh S 11.0 mph17.7 kmh 30.14 in1020.7 mb - 0.00 in0.0 mm 0.00 in0.0 mm
03:50 PM 73.0°F22.8°C 62.3°F16.8°C 69% 6.3 mph SSW10.1 kmh SSW 12.0 mph19.3 kmh 30.14 in1020.7 mb - 0.00 in0.0 mm 0.00 in0.0 mm
04:00 PM 73.2°F22.9°C 62.8°F17.1°C 70% 7.3 mph SW11.7 kmh SW 11.0 mph17.7 kmh 30.13 in1020.3 mb - 0.00 in0.0 mm 0.00 in0.0 mm
04:10 PM 73.0°F22.8°C 62.6°F17.0°C 70% 6.2 mph SW10.0 kmh SW 10.0 mph16.1 kmh 30.13 in1020.3 mb - 0.00 in0.0 mm 0.00 in0.0 mm
04:20 PM 73.1°F22.8°C 62.8°F17.1°C 70% 5.5 mph SW8.9 kmh SW 6.0 mph9.7 kmh 30.13 in1020.3 mb - 0.00 in0.0 mm 0.00 in0.0 mm
04:30 PM 73.5°F23.1°C 62.7°F17.1°C 69% 6.4 mph SW10.3 kmh SW 7.0 mph11.3 kmh 30.13 in1020.3 mb - 0.00 in0.0 mm 0.00 in0.0 mm
04:40 PM 73.1°F22.8°C 62.8°F17.1°C 70% 5.7 mph SW9.2 kmh SW 9.0 mph14.5 kmh 30.13 in1020.3 mb - 0.00 in0.0 mm 0.00 in0.0 mm
04:50 PM 73.1°F22.8°C 62.7°F17.1°C 70% 4.6 mph SW7.4 kmh SW 6.0 mph9.7 kmh 30.13 in1020.3 mb - 0.00 in0.0 mm 0.00 in0.0 mm
05:00 PM 72.3°F22.4°C 62.8°F17.1°C 72% 3.7 mph SW6.0 kmh SW 6.0 mph9.7 kmh 30.12 in1020.0 mb - 0.00 in0.0 mm 0.00 in0.0 mm
05:10 PM 71.9°F22.2°C 62.8°F17.1°C 73% 3.6 mph SW5.8 kmh SW 5.0 mph8.0 kmh 30.12 in1020.0 mb - 0.00 in0.0 mm 0.00 in0.0 mm
05:20 PM 72.6°F22.6°C 63.1°F17.3°C 72% 4.6 mph SW7.4 kmh SW 6.0 mph9.7 kmh 30.11 in1019.6 mb - 0.00 in0.0 mm 0.00 in0.0 mm
05:30 PM 72.0°F22.2°C 62.9°F17.2°C 73% 3.9 mph SW6.3 kmh SW 5.0 mph8.0 kmh 30.12 in1020.0 mb - 0.00 in0.0 mm 0.00 in0.0 mm
05:40 PM 71.8°F22.1°C 62.3°F16.8°C 72% 3.6 mph SW5.8 kmh SW 7.0 mph11.3 kmh 30.11 in1019.6 mb - 0.00 in0.0 mm 0.00 in0.0 mm
05:50 PM 71.8°F22.1°C 62.7°F17.1°C 73% 3.8 mph SW6.1 kmh SW 6.0 mph9.7 kmh 30.11 in1019.6 mb - 0.00 in0.0 mm 0.00 in0.0 mm
06:00 PM 71.2°F21.8°C 62.1°F16.7°C 73% 3.5 mph SW5.6 kmh SW 5.0 mph8.0 kmh 30.11 in1019.6 mb - 0.00 in0.0 mm 0.00 in0.0 mm
06:10 PM 71.7°F22.1°C 62.2°F16.8°C 72% 2.4 mph SW3.9 kmh SW 3.0 mph4.8 kmh 30.11 in1019.6 mb - 0.00 in0.0 mm 0.00 in0.0 mm
06:20 PM 71.2°F21.8°C 62.5°F16.9°C 74% 2.9 mph SW4.7 kmh SW 4.0 mph6.4 kmh 30.11 in1019.6 mb - 0.00 in0.0 mm 0.00 in0.0 mm
06:30 PM 71.3°F21.8°C 62.6°F17.0°C 74% 2.0 mph SW3.2 kmh SW 3.0 mph4.8 kmh 30.11 in1019.6 mb - 0.00 in0.0 mm 0.00 in0.0 mm
06:40 PM 71.1°F21.7°C 62.4°F16.9°C 74% 2.6 mph SW4.2 kmh SW 4.0 mph6.4 kmh 30.12 in1020.0 mb - 0.00 in0.0 mm 0.00 in0.0 mm
06:50 PM 71.0°F21.7°C 62.3°F16.8°C 74% 3.4 mph SW5.5 kmh SW 5.0 mph8.0 kmh 30.12 in1020.0 mb - 0.00 in0.0 mm 0.00 in0.0 mm
07:00 PM 70.5°F21.4°C 62.2°F16.8°C 75% 3.3 mph SW5.3 kmh SW 5.0 mph8.0 kmh 30.12 in1020.0 mb - 0.00 in0.0 mm 0.00 in0.0 mm
07:10 PM 70.2°F21.2°C 62.7°F17.1°C 77% 3.9 mph SW6.3 kmh SW 4.0 mph6.4 kmh 30.12 in1020.0 mb - 0.00 in0.0 mm 0.00 in0.0 mm
07:20 PM 69.8°F21.0°C 62.6°F17.0°C 78% 2.1 mph SW3.4 kmh SW 3.0 mph4.8 kmh 30.12 in1020.0 mb - 0.00 in0.0 mm 0.00 in0.0 mm
07:30 PM 69.9°F21.1°C 62.7°F17.1°C 78% 1.7 mph SW2.7 kmh SW 5.0 mph8.0 kmh 30.12 in1020.0 mb - 0.00 in0.0 mm 0.00 in0.0 mm
07:40 PM 69.4°F20.8°C 62.6°F17.0°C 79% 3.8 mph SW6.1 kmh SW 5.0 mph8.0 kmh 30.12 in1020.0 mb - 0.00 in0.0 mm 0.00 in0.0 mm
07:50 PM 69.2°F20.7°C 62.8°F17.1°C 80% 2.7 mph SW4.3 kmh SW 4.0 mph6.4 kmh 30.12 in1020.0 mb - 0.00 in0.0 mm 0.00 in0.0 mm
08:00 PM 68.8°F20.4°C 62.7°F17.1°C 81% 1.3 mph SW2.1 kmh SW 4.0 mph6.4 kmh 30.13 in1020.3 mb - 0.00 in0.0 mm 0.00 in0.0 mm
08:10 PM 68.7°F20.4°C 63.0°F17.2°C 82% 2.4 mph SW3.9 kmh SW 3.0 mph4.8 kmh 30.13 in1020.3 mb - 0.00 in0.0 mm 0.00 in0.0 mm
08:20 PM 68.6°F20.3°C 62.9°F17.2°C 82% 2.0 mph SW3.2 kmh SW 3.0 mph4.8 kmh 30.13 in1020.3 mb - 0.00 in0.0 mm 0.00 in0.0 mm
08:30 PM 68.5°F20.3°C 62.8°F17.1°C 82% Calm Calm -- 30.13 in1020.3 mb - 0.00 in0.0 mm 0.00 in0.0 mm
08:40 PM 68.4°F20.2°C 62.7°F17.1°C 82% Calm Calm -- 30.14 in1020.7 mb - 0.00 in0.0 mm 0.00 in0.0 mm
08:50 PM 68.3°F20.2°C 63.0°F17.2°C 83% Calm Calm -- 30.14 in1020.7 mb - 0.00 in0.0 mm 0.00 in0.0 mm
09:00 PM 68.2°F20.1°C 62.8°F17.1°C 83% Calm Calm -- 30.14 in1020.7 mb - 0.00 in0.0 mm 0.00 in0.0 mm
09:10 PM 68.1°F20.1°C 62.7°F17.1°C 83% 0.5 mph SW0.8 kmh SW 1.0 mph1.6 kmh 30.14 in1020.7 mb - 0.00 in0.0 mm 0.00 in0.0 mm
09:20 PM 67.9°F19.9°C 62.5°F16.9°C 83% Calm Calm -- 30.15 in1021.0 mb - 0.00 in0.0 mm 0.00 in0.0 mm
09:30 PM 67.7°F19.8°C 63.0°F17.2°C 85% 0.5 mph SW0.8 kmh SW 2.0 mph3.2 kmh 30.15 in1021.0 mb - 0.00 in0.0 mm 0.00 in0.0 mm
09:40 PM 67.6°F19.8°C 62.9°F17.2°C 85% 1.6 mph SW2.6 kmh SW 3.0 mph4.8 kmh 30.15 in1021.0 mb - 0.00 in0.0 mm 0.00 in0.0 mm
09:50 PM 67.7°F19.8°C 63.0°F17.2°C 85% 1.9 mph SW3.1 kmh SW 4.0 mph6.4 kmh 30.15 in1021.0 mb - 0.00 in0.0 mm 0.00 in0.0 mm
10:00 PM 67.6°F19.8°C 62.6°F17.0°C 84% 2.2 mph SW3.5 kmh SW 5.0 mph8.0 kmh 30.16 in1021.3 mb - 0.00 in0.0 mm 0.00 in0.0 mm
10:10 PM 67.7°F19.8°C 63.0°F17.2°C 85% 1.1 mph SW1.8 kmh SW 2.0 mph3.2 kmh 30.16 in1021.3 mb - 0.00 in0.0 mm 0.00 in0.0 mm
10:20 PM 67.8°F19.9°C 63.4°F17.4°C 86% 2.3 mph SW3.7 kmh SW 3.0 mph4.8 kmh 30.16 in1021.3 mb - 0.00 in0.0 mm 0.00 in0.0 mm
10:30 PM 67.9°F19.9°C 63.5°F17.5°C 86% 1.2 mph SW1.9 kmh SW 5.0 mph8.0 kmh 30.16 in1021.3 mb - 0.00 in0.0 mm 0.00 in0.0 mm
10:40 PM 68.0°F20.0°C 64.0°F17.8°C 87% 1.0 mph SW1.6 kmh SW 4.0 mph6.4 kmh 30.16 in1021.3 mb - 0.00 in0.0 mm 0.00 in0.0 mm
10:50 PM 68.2°F20.1°C 63.8°F17.7°C 86% 3.4 mph SW5.5 kmh SW 5.0 mph8.0 kmh 30.16 in1021.3 mb - 0.00 in0.0 mm 0.00 in0.0 mm
11:00 PM 68.2°F20.1°C 63.5°F17.5°C 85% 2.8 mph SW4.5 kmh SW 3.0 mph4.8 kmh 30.16 in1021.3 mb - 0.00 in0.0 mm 0.00 in0.0 mm
11:10 PM 68.2°F20.1°C 63.5°F17.5°C 85% 1.9 mph SW3.1 kmh SW 4.0 mph6.4 kmh 30.16 in1021.3 mb - 0.00 in0.0 mm 0.00 in0.0 mm
11:20 PM 68.3°F20.2°C 63.3°F17.4°C 84% 0.1 mph SW0.2 kmh SW -- 30.16 in1021.3 mb - 0.00 in0.0 mm 0.00 in0.0 mm
11:30 PM 68.3°F20.2°C 63.3°F17.4°C 84% Calm Calm -- 30.16 in1021.3 mb - 0.00 in0.0 mm 0.00 in0.0 mm
11:40 PM 68.5°F20.3°C 63.5°F17.5°C 84% Calm Calm -- 30.16 in1021.3 mb - 0.00 in0.0 mm 0.00 in0.0 mm
11:50 PM 68.5°F20.3°C 63.5°F17.5°C 84% Calm Calm -- 30.15 in1021.0 mb - 0.00 in0.0 mm 0.00 in0.0 mm